Terminal Aerodrome Forecast
Issued by NWS Green Bay, WI

Home | Current Version | Previous Version | Text Only | Print | Product List | Glossary Off
Versions: 1 2 3 4 5 6 7 8 9 10 11 12 13 14 15 16 17 18 19 20 21 22 23 24 25 26 27 28

000
FTUS43 KGRB 231600 AAA
TAFGRB
TAF AMD
KGRB 231625Z 2316/2412 19008G18KT P6SM BKN080
     FM231900 19008G16KT 6SM -SHRA BKN025 OVC040
     FM232200 21006KT P6SM OVC015
     FM240100 24004KT 4SM BR BKN012
     FM240600 26004KT 6SM BR SCT003
     FM240800 VRB03KT 1/2SM FG VV002=

USA.gov is the U.S. government's official web portal to all federal, state and local government web resources and services.